Time;durP1;ratioP1;P1;durP2;ratioP2;P2;SDS_P1;SDS_P2;PMS_P1;PMS_P2;Temp;Humidity;BMP_temperature;BMP_pressure;BME280_temperature;BME280_humidity;BME280_pressure;Samples;Min_cycle;Max_cycle;Signal;HPM_P1;HPM_P2
2021/07/05 00:00:44;;;;;;;24.10;15.85;;;;;;;16.71;100.00;98569.05;1695560;82;21127;-60
2021/07/05 00:03:10;;;;;;;22.52;15.78;;;;;;;16.71;100.00;98567.69;1698316;83;20991;-60
2021/07/05 00:05:37;;;;;;;19.62;15.40;;;;;;;16.72;100.00;98571.19;1701001;82;21180;-61
2021/07/05 00:08:05;;;;;;;25.72;16.50;;;;;;;16.71;100.00;98570.41;1688824;82;21016;-60
2021/07/05 00:10:33;;;;;;;21.48;16.45;;;;;;;16.73;100.00;98567.36;1699859;82;20917;-61
2021/07/05 00:13:02;;;;;;;19.40;16.02;;;;;;;16.76;100.00;98575.44;1693237;83;20995;-62
2021/07/05 00:15:30;;;;;;;19.27;17.07;;;;;;;16.77;100.00;98572.95;1680953;83;21102;-60
2021/07/05 00:18:04;;;;;;;26.60;17.90;;;;;;;16.75;100.00;98577.33;1689722;82;21017;-61
2021/07/05 00:20:35;;;;;;;30.30;19.77;;;;;;;16.75;100.00;98584.09;1692487;83;21013;-61
2021/07/05 00:23:03;;;;;;;27.98;20.90;;;;;;;16.75;100.00;98581.95;1686989;82;20969;-61
2021/07/05 00:25:31;;;;;;;28.20;19.85;;;;;;;16.76;100.00;98589.77;1695580;83;21037;-61
2021/07/05 00:27:59;;;;;;;;;;;;;;;16.77;100.00;98589.21;1698854;82;21359;-61
2021/07/05 00:30:26;;;;;;;21.73;17.10;;;;;;;16.77;100.00;98591.92;1690550;83;20237;-61
2021/07/05 00:32:53;;;;;;;26.07;17.25;;;;;;;16.78;100.00;98593.50;1658045;83;21088;-61
2021/07/05 00:35:22;;;;;;;25.25;18.02;;;;;;;16.78;100.00;98595.70;1718249;82;21037;-62
2021/07/05 00:37:48;;;;;;;23.52;17.30;;;;;;;16.80;100.00;98588.59;1697054;82;26683;-62
2021/07/05 00:40:15;;;;;;;20.40;18.23;;;;;;;16.80;100.00;98590.74;1685337;82;21473;-61
2021/07/05 00:42:42;;;;;;;20.77;17.07;;;;;;;16.81;100.00;98578.80;1686706;83;21115;-62
2021/07/05 00:45:11;;;;;;;18.50;16.42;;;;;;;16.81;100.00;98578.02;1688505;83;22264;-62
2021/07/05 00:47:37;;;;;;;;;;;;;;;16.82;100.00;98568.76;1685070;83;20956;-62
2021/07/05 00:50:06;;;;;;;19.60;16.37;;;;;;;16.82;100.00;98574.17;1690547;82;20570;-62
2021/07/05 00:52:34;;;;;;;20.30;17.32;;;;;;;16.82;100.00;98576.32;1683972;83;20996;-62
2021/07/05 00:55:03;;;;;;;21.62;17.60;;;;;;;16.85;100.00;98572.17;1691932;83;20881;-61
2021/07/05 00:57:30;;;;;;;20.48;17.42;;;;;;;16.84;100.00;98572.74;1696320;82;21106;-62
2021/07/05 00:59:57;;;;;;;21.62;18.92;;;;;;;16.85;100.00;98578.39;1681380;83;21139;-61
2021/07/05 01:02:25;;;;;;;25.50;18.98;;;;;;;16.86;100.00;98575.14;1680615;83;21155;-61
2021/07/05 01:04:52;;;;;;;23.10;19.02;;;;;;;16.87;100.00;98576.16;1694853;82;21066;-62
2021/07/05 01:07:19;;;;;;;25.17;18.60;;;;;;;16.86;100.00;98580.00;1711727;82;21053;-64
2021/07/05 01:09:45;;;;;;;24.10;19.15;;;;;;;16.85;100.00;98574.89;1696503;82;21256;-63
2021/07/05 01:12:13;;;;;;;21.27;18.27;;;;;;;16.83;100.00;98576.58;1680906;83;21648;-63
2021/07/05 01:14:40;;;;;;;19.67;16.23;;;;;;;16.83;100.00;98578.47;1678807;83;21028;-64
2021/07/05 01:17:12;;;;;;;32.23;18.30;;;;;;;16.78;100.00;98574.53;1695312;83;20976;-64
2021/07/05 01:19:45;;;;;;;26.90;18.95;;;;;;;16.75;100.00;98579.24;1680434;83;20918;-63
2021/07/05 01:22:12;;;;;;;22.90;18.73;;;;;;;16.75;100.00;98580.03;1709368;82;21714;-64
2021/07/05 01:24:39;;;;;;;25.97;18.75;;;;;;;16.77;100.00;98575.66;1688997;83;21113;-62
2021/07/05 01:27:05;;;;;;;25.25;19.57;;;;;;;16.75;100.00;98577.33;1698767;83;20979;-61
2021/07/05 01:29:33;;;;;;;24.75;20.12;;;;;;;16.75;100.00;98573.82;1697615;83;21124;-62
2021/07/05 01:32:00;;;;;;;26.57;20.35;;;;;;;16.75;100.00;98579.24;1692750;83;21529;-62
2021/07/05 01:34:26;;;;;;;25.48;20.08;;;;;;;16.76;100.00;98583.00;1688557;83;21065;-62
2021/07/05 01:36:54;;;;;;;31.50;24.12;;;;;;;16.76;100.00;98584.36;1680920;82;25040;-62
2021/07/05 01:39:21;;;;;;;29.57;22.48;;;;;;;16.78;100.00;98588.08;1682025;83;20994;-61
2021/07/05 01:41:48;;;;;;;31.50;21.87;;;;;;;16.76;100.00;98579.50;1692162;82;20897;-62
2021/07/05 01:44:14;;;;;;;25.97;22.48;;;;;;;16.74;100.00;98583.08;1683513;82;20997;-61
2021/07/05 01:46:42;;;;;;;33.00;21.62;;;;;;;16.72;100.00;98586.09;1709034;82;21136;-62
2021/07/05 01:49:10;;;;;;;28.52;22.87;;;;;;;16.71;100.00;98584.52;1684416;82;21107;-62
2021/07/05 01:51:37;;;;;;;29.37;22.45;;;;;;;16.69;100.00;98585.38;1690559;83;20941;-62
2021/07/05 01:54:04;;;;;;;29.12;21.75;;;;;;;16.69;100.00;98586.73;1694806;82;20915;-62
2021/07/05 01:56:32;;;;;;;;;;;;;;;16.67;100.00;98589.75;1692673;82;21147;-62
2021/07/05 01:58:59;;;;;;;35.33;23.07;;;;;;;16.67;100.00;98588.97;1682303;83;21113;-62
2021/07/05 02:01:25;;;;;;;32.28;22.02;;;;;;;16.67;100.00;98597.09;1673169;83;22523;-62
2021/07/05 02:03:52;;;;;;;37.83;24.30;;;;;;;16.67;100.00;98592.47;1697574;83;20934;-62
2021/07/05 02:06:18;;;;;;;30.40;23.12;;;;;;;16.71;100.00;98598.06;1679556;83;21021;-62
2021/07/05 02:08:45;;;;;;;28.95;22.25;;;;;;;16.74;100.00;98601.48;1685522;82;20922;-62
2021/07/05 02:11:12;;;;;;;33.70;24.10;;;;;;;16.76;100.00;98607.39;1685783;82;21103;-62
2021/07/05 02:13:38;;;;;;;38.08;23.60;;;;;;;16.80;100.00;98609.71;1681686;83;21415;-62
2021/07/05 02:16:05;;;;;;;32.20;23.52;;;;;;;16.84;100.00;98609.33;1679870;82;21215;-62
2021/07/05 02:18:34;;;;;;;35.88;25.10;;;;;;;16.86;100.00;98604.39;1692503;83;21001;-63
2021/07/05 02:21:04;;;;;;;34.73;24.63;;;;;;;16.92;100.00;98605.02;1692880;83;21498;-64
2021/07/05 02:23:31;;;;;;;38.30;24.57;;;;;;;16.95;100.00;98609.00;1693453;83;21158;-63
2021/07/05 02:25:57;;;;;;;38.30;26.25;;;;;;;16.96;100.00;98616.04;1711244;82;20927;-63
2021/07/05 02:28:29;;;;;;;41.15;24.37;;;;;;;17.01;100.00;98618.02;1695945;83;20903;-63
2021/07/05 02:30:55;;;;;;;32.95;23.52;;;;;;;17.03;100.00;98614.45;1682570;83;21392;-62
2021/07/05 02:33:24;;;;;;;29.12;22.02;;;;;;;17.06;100.00;98609.73;1695733;83;21371;-62
2021/07/05 02:35:51;;;;;;;40.73;24.77;;;;;;;17.12;100.00;98618.49;1679495;83;21114;-62
2021/07/05 02:38:18;;;;;;;36.10;22.73;;;;;;;17.15;100.00;98615.16;1681159;83;21059;-63
2021/07/05 02:40:46;;;;;;;33.95;22.60;;;;;;;17.20;100.00;98620.42;1694618;82;20977;-64
2021/07/05 02:43:14;;;;;;;55.92;25.25;;;;;;;17.25;100.00;98610.77;1675473;83;21107;-63
2021/07/05 02:45:43;;;;;;;33.45;24.07;;;;;;;17.28;100.00;98614.75;1682534;83;21396;-62
2021/07/05 02:48:16;;;;;;;47.40;25.17;;;;;;;17.30;100.00;98614.66;1699079;83;21176;-62
2021/07/05 02:50:48;;;;;;;28.80;22.70;;;;;;;17.32;100.00;98619.21;1704002;82;21136;-61
2021/07/05 02:53:14;;;;;;;32.23;23.10;;;;;;;17.37;100.00;98614.19;1685529;83;20925;-63
2021/07/05 02:55:41;;;;;;;28.57;21.23;;;;;;;17.41;100.00;98622.46;1686955;83;21395;-64
2021/07/05 02:58:09;;;;;;;37.03;23.07;;;;;;;17.43;100.00;98628.37;1682562;83;20877;-64
2021/07/05 03:00:39;;;;;;;30.08;21.62;;;;;;;17.45;100.00;98631.56;1713252;82;21105;-63
2021/07/05 03:03:05;;;;;;;34.33;22.22;;;;;;;17.46;100.00;98631.79;1667536;82;21091;-64
2021/07/05 03:05:33;;;;;;;;;;;;;;;17.48;100.00;98634.41;1687321;83;20938;-62
2021/07/05 03:08:00;;;;;;;29.00;21.97;;;;;;;17.51;100.00;98642.47;1679928;83;20127;-63
2021/07/05 03:10:35;;;;;;;30.05;22.48;;;;;;;17.56;100.00;98645.02;1685338;83;20950;-63
2021/07/05 03:13:09;;;;;;;40.33;23.60;;;;;;;17.61;100.00;98652.19;1694496;83;20971;-62
2021/07/05 03:15:36;;;;;;;28.42;21.20;;;;;;;17.63;100.00;98645.31;1685045;83;21517;-64
2021/07/05 03:18:03;;;;;;;28.02;20.95;;;;;;;17.69;100.00;98640.54;1699021;82;20932;-62
2021/07/05 03:20:32;;;;;;;32.63;22.60;;;;;;;17.75;100.00;98639.23;1658709;83;20929;-62
2021/07/05 03:23:00;;;;;;;25.50;20.08;;;;;;;17.81;100.00;98642.59;1695428;82;21069;-62
2021/07/05 03:25:29;;;;;;;30.32;23.47;;;;;;;17.85;100.00;98639.48;1706669;83;21119;-62
2021/07/05 03:27:56;;;;;;;26.75;22.25;;;;;;;17.93;100.00;98635.39;1679182;83;20917;-62
2021/07/05 03:30:23;;;;;;;26.87;22.42;;;;;;;18.03;100.00;98635.59;1687957;82;20931;-62
2021/07/05 03:32:50;;;;;;;28.60;23.70;;;;;;;18.08;100.00;98638.13;1690950;82;21016;-61
2021/07/05 03:35:17;;;;;;;25.48;21.73;;;;;;;18.15;100.00;98634.35;1683680;83;21391;-62
2021/07/05 03:37:44;;;;;;;24.55;21.73;;;;;;;18.23;100.00;98635.97;1681212;83;21861;-62
2021/07/05 03:40:16;;;;;;;22.35;19.55;;;;;;;18.32;100.00;98634.02;1681007;83;20851;-62
2021/07/05 03:42:44;;;;;;;25.50;20.10;;;;;;;18.35;100.00;98634.17;1690027;83;20996;-64
2021/07/05 03:45:13;;;;;;;26.17;20.97;;;;;;;18.38;100.00;98637.59;1717036;82;20902;-64
2021/07/05 03:47:39;;;;;;;25.00;21.30;;;;;;;18.42;100.00;98628.20;1694594;82;21087;-63
2021/07/05 03:50:08;;;;;;;25.62;20.30;;;;;;;18.47;100.00;98628.05;1696932;82;21147;-63
2021/07/05 03:52:35;;;;;;;22.73;20.23;;;;;;;18.55;100.00;98636.70;1703083;82;20846;-63
2021/07/05 03:55:05;;;;;;;26.57;21.87;;;;;;;18.69;100.00;98628.31;1695069;83;21092;-63
2021/07/05 03:57:32;;;;;;;21.82;19.48;;;;;;;18.82;100.00;98636.00;1708346;83;21011;-62
2021/07/05 03:59:58;;;;;;;28.57;20.77;;;;;;;18.99;100.00;98637.80;1697020;83;21869;-63
2021/07/05 04:02:26;;;;;;;24.95;20.88;;;;;;;19.12;100.00;98634.58;1680523;83;21183;-63
2021/07/05 04:04:54;;;;;;;26.68;21.10;;;;;;;19.26;100.00;98642.69;1674826;83;21487;-63
2021/07/05 04:07:21;;;;;;;29.98;23.02;;;;;;;19.41;100.00;98645.92;1689212;83;21378;-62
2021/07/05 04:09:47;;;;;;;28.55;21.52;;;;;;;19.48;100.00;98637.45;1696283;83;21013;-63
2021/07/05 04:12:17;;;;;;;31.62;21.17;;;;;;;19.55;100.00;98649.16;1689313;83;21396;-64
2021/07/05 04:14:42;;;;;;;21.37;17.95;;;;;;;19.58;100.00;98639.53;1682428;83;21811;-63
2021/07/05 04:17:09;;;;;;;22.10;17.73;;;;;;;19.65;100.00;98638.41;1696526;83;20858;-64
2021/07/05 04:19:36;;;;;;;21.52;17.55;;;;;;;19.70;100.00;98634.14;1681383;83;21538;-63
2021/07/05 04:22:03;;;;;;;22.07;18.17;;;;;;;19.71;100.00;98634.36;1694510;82;21978;-63
2021/07/05 04:24:30;;;;;;;23.00;18.35;;;;;;;19.72;100.00;98630.53;1695415;83;21349;-65
2021/07/05 04:26:56;;;;;;;22.77;18.05;;;;;;;19.76;100.00;98625.19;1698816;83;21128;-65
2021/07/05 04:29:23;;;;;;;25.02;19.98;;;;;;;19.84;100.00;98625.66;1697891;83;22813;-64
2021/07/05 04:31:49;;;;;;;21.82;18.27;;;;;;;19.92;100.00;98630.22;1682267;83;21113;-63
2021/07/05 04:34:16;;;;;;;21.00;18.37;;;;;;;20.04;100.00;98628.06;1690282;83;21029;-63
2021/07/05 04:36:42;;;;;;;18.60;15.30;;;;;;;20.52;100.00;98628.63;1700692;83;20981;-64
2021/07/05 04:39:09;;;;;;;18.90;14.45;;;;;;;20.52;100.00;98628.63;1688786;83;21062;-64
2021/07/05 04:41:36;;;;;;;16.40;14.63;;;;;;;20.62;100.00;98626.05;1695988;83;20952;-62
2021/07/05 04:44:03;;;;;;;14.80;13.30;;;;;;;20.66;100.00;98633.77;1685821;82;20992;-63
2021/07/05 04:46:30;;;;;;;17.70;13.98;;;;;;;20.84;100.00;98635.66;1680136;83;21494;-63
2021/07/05 04:48:57;;;;;;;14.75;12.82;;;;;;;20.90;100.00;98637.03;1699786;83;20985;-64
2021/07/05 04:51:23;;;;;;;20.43;14.55;;;;;;;20.98;100.00;98636.66;1683830;83;22146;-62
2021/07/05 04:53:51;;;;;;;17.52;14.73;;;;;;;21.01;100.00;98637.91;1676977;83;21498;-63
2021/07/05 04:56:19;;;;;;;16.30;13.30;;;;;;;20.97;100.00;98639.18;1685345;83;20939;-62
2021/07/05 04:58:45;;;;;;;25.50;13.48;;;;;;;20.82;100.00;98643.96;1683144;83;20942;-64
2021/07/05 05:01:13;;;;;;;;;;;;;;;20.80;100.00;98638.88;1698022;83;20988;-62
2021/07/05 05:03:40;;;;;;;14.55;13.15;;;;;;;20.82;100.00;98643.39;1691186;83;21730;-64
2021/07/05 05:06:07;;;;;;;16.77;12.63;;;;;;;20.98;100.00;98644.84;1702810;83;20887;-64
2021/07/05 05:08:33;;;;;;;14.13;12.65;;;;;;;21.06;100.00;98644.48;1690184;83;20957;-64
2021/07/05 05:11:00;;;;;;;18.42;13.78;;;;;;;21.09;100.00;98636.97;1684183;83;20983;-64
2021/07/05 05:13:28;;;;;;;17.12;13.68;;;;;;;21.39;100.00;98634.17;1686852;83;21354;-62
2021/07/05 05:15:55;;;;;;;16.12;13.18;;;;;;;21.45;100.00;98635.28;1686455;83;21132;-62
2021/07/05 05:18:22;;;;;;;18.70;13.70;;;;;;;21.52;100.00;98635.47;1680901;83;21142;-62
2021/07/05 05:20:50;;;;;;;14.93;12.55;;;;;;;21.51;100.00;98628.41;1699565;83;21486;-63
2021/07/05 05:23:17;;;;;;;17.57;13.98;;;;;;;21.58;100.00;98628.05;1707366;82;20962;-62
2021/07/05 05:25:44;;;;;;;15.98;13.15;;;;;;;21.58;100.00;98627.23;1691414;83;21487;-62
2021/07/05 05:28:10;;;;;;;18.02;13.30;;;;;;;21.67;100.00;98627.88;1696989;83;21109;-62
2021/07/05 05:30:37;;;;;;;16.27;13.05;;;;;;;21.53;100.00;98626.91;1709599;82;20989;-65
2021/07/05 05:33:03;;;;;;;17.92;12.63;;;;;;;21.51;100.00;98630.59;1694248;82;21442;-62
2021/07/05 05:35:30;;;;;;;16.52;12.78;;;;;;;21.46;100.00;98634.94;1713979;82;21045;-65
2021/07/05 05:37:57;;;;;;;15.58;13.65;;;;;;;21.50;100.00;98637.75;1713999;82;21005;-62
2021/07/05 05:40:24;;;;;;;15.28;13.75;;;;;;;21.51;100.00;98637.97;1703857;83;21985;-63
2021/07/05 05:42:50;;;;;;;15.45;13.10;;;;;;;21.54;100.00;98636.71;1711276;82;20897;-64
2021/07/05 05:45:17;;;;;;;16.27;13.65;;;;;;;21.82;100.00;98637.23;1704592;83;20922;-63
2021/07/05 05:47:45;;;;;;;16.17;14.30;;;;;;;22.12;100.00;98634.89;1708899;82;21082;-64
2021/07/05 05:50:13;;;;;;;15.68;14.05;;;;;;;22.36;100.00;98639.96;1711576;82;21040;-64
2021/07/05 05:52:40;;;;;;;15.70;14.10;;;;;;;22.64;100.00;98639.84;1706825;82;21113;-64
2021/07/05 05:55:07;;;;;;;17.75;13.40;;;;;;;22.69;100.00;98638.20;1689468;83;20973;-64
2021/07/05 05:57:36;;;;;;;17.30;13.80;;;;;;;22.57;100.00;98638.31;1701792;83;20994;-63
2021/07/05 06:00:15;;;;;;;17.42;14.07;;;;;;;22.51;100.00;98638.35;1716929;81;20995;-62
2021/07/05 06:02:39;;;;;;;16.67;13.60;;;;;;;22.51;100.00;98645.98;1728421;82;21514;-64
2021/07/05 06:05:08;;;;;;;14.75;13.15;;;;;;;22.57;100.00;98645.15;1703596;82;21533;-65
2021/07/05 06:07:34;;;;;;;17.45;13.62;;;;;;;22.75;100.00;98655.91;1726139;81;20973;-64
2021/07/05 06:10:01;;;;;;;16.62;13.20;;;;;;;22.76;100.00;98650.67;1735083;82;20969;-65
2021/07/05 06:12:27;;;;;;;15.23;12.88;;;;;;;22.72;100.00;98645.69;1708502;82;20910;-65
2021/07/05 06:14:54;;;;;;;15.48;13.18;;;;;;;22.75;100.00;98652.37;1710008;82;21151;-66
2021/07/05 06:17:22;;;;;;;17.57;13.60;;;;;;;22.63;100.00;98650.55;1730904;81;21135;-65
2021/07/05 06:19:48;;;;;;;23.38;13.28;;;;;;;22.77;100.00;98648.14;1713379;81;21609;-64
2021/07/05 06:22:18;;;;;;;15.15;12.53;;;;;;;23.03;100.00;98656.36;1708283;82;21055;-64
2021/07/05 06:24:48;;;;;;;15.35;13.13;;;;;;;22.90;100.00;98652.91;1682553;82;20842;-62
2021/07/05 06:27:15;;;;;;;14.80;12.23;;;;;;;22.97;100.00;98663.22;1676879;84;21033;-66
2021/07/05 06:29:42;;;;;;;15.53;11.77;;;;;;;23.23;100.00;98668.11;1694559;82;21748;-67
2021/07/05 06:32:09;;;;;;;14.38;11.25;;;;;;;23.27;100.00;98656.64;1709467;82;20923;-68
2021/07/05 06:34:36;;;;;;;13.62;11.80;;;;;;;23.31;100.00;98659.67;1712406;82;20927;-67
2021/07/05 06:37:04;;;;;;;15.68;13.28;;;;;;;23.26;100.00;98661.91;1717171;82;21129;-67
2021/07/05 06:39:32;;;;;;;12.75;11.25;;;;;;;23.51;100.00;98662.40;1700333;82;20900;-69
2021/07/05 06:41:59;;;;;;;14.65;11.20;;;;;;;23.74;100.00;98660.54;1703566;82;21133;-67
2021/07/05 06:44:25;;;;;;;12.93;10.55;;;;;;;23.94;100.00;98659.13;1711737;83;20878;-67
2021/07/05 06:46:53;;;;;;;13.70;10.88;;;;;;;24.24;100.00;98663.94;1700036;83;32432;-68
2021/07/05 06:49:21;;;;;;;11.63;10.53;;;;;;;24.50;100.00;98657.70;1706739;83;20936;-67
2021/07/05 06:51:49;;;;;;;17.90;12.40;;;;;;;24.49;100.00;98656.12;1703147;83;21888;-69
2021/07/05 06:54:16;;;;;;;12.98;11.53;;;;;;;24.45;100.00;98660.73;1711008;82;21589;-67
2021/07/05 06:56:43;;;;;;;13.95;10.93;;;;;;;24.30;100.00;98659.16;1708759;83;20916;-67
2021/07/05 06:59:09;;;;;;;13.53;10.48;;;;;;;24.42;100.00;98658.73;1701809;82;21457;-67
2021/07/05 07:01:37;;;;;;;14.18;11.12;;;;;;;25.02;100.00;98662.39;1703068;82;21064;-67
2021/07/05 07:04:04;;;;;;;15.83;10.72;;;;;;;25.39;100.00;98663.66;1696934;82;20960;-66
2021/07/05 07:06:30;;;;;;;13.58;11.40;;;;;;;25.31;100.00;98660.05;1714989;82;21109;-67
2021/07/05 07:08:57;;;;;;;13.45;9.45;;;;;;;25.70;100.00;98660.26;1708862;82;20976;-67
2021/07/05 07:11:23;;;;;;;12.05;10.03;;;;;;;25.88;100.00;98664.80;1692338;83;21048;-67
2021/07/05 07:13:50;;;;;;;13.35;10.65;;;;;;;25.80;100.00;98660.98;1700698;82;20921;-65
2021/07/05 07:16:19;;;;;;;10.50;9.40;;;;;;;25.73;100.00;98652.06;1707035;83;20902;-67
2021/07/05 07:19:16;;;;;;;16.30;10.40;;;;;;;25.86;100.00;98658.11;1703021;83;21139;-65
2021/07/05 07:21:32;;;;;;;11.83;9.63;;;;;;;26.06;100.00;98660.06;1700739;82;20827;-67
2021/07/05 07:23:58;;;;;;;15.03;10.88;;;;;;;26.19;100.00;98659.18;1696331;82;20905;-67
2021/07/05 07:26:25;;;;;;;12.10;9.30;;;;;;;26.01;100.00;98657.66;1699248;81;21028;-66
2021/07/05 07:28:55;;;;;;;14.00;10.77;;;;;;;25.89;100.00;98653.22;1710495;82;20894;-65
2021/07/05 07:31:21;;;;;;;12.63;10.78;;;;;;;26.09;100.00;98653.23;1687047;83;21327;-66
2021/07/05 07:33:50;;;;;;;12.78;10.58;;;;;;;26.58;100.00;98653.22;1702423;83;20926;-67
2021/07/05 07:36:17;;;;;;;10.93;9.70;;;;;;;26.78;100.00;98650.98;1699300;82;21340;-66
2021/07/05 07:38:47;;;;;;;11.15;10.13;;;;;;;27.05;100.00;98653.71;1713343;81;21011;-67
2021/07/05 07:41:19;;;;;;;11.57;10.25;;;;;;;27.20;100.00;98661.48;1678267;83;21008;-67
2021/07/05 07:43:42;;;;;;;13.00;9.78;;;;;;;27.27;100.00;98662.11;1650801;85;21204;-67
2021/07/05 07:46:09;;;;;;;14.33;9.43;;;;;;;27.30;100.00;98666.24;1651893;84;20909;-67
2021/07/05 07:48:38;;;;;;;10.72;8.25;;;;;;;27.56;100.00;98654.14;1652776;85;21380;-66
2021/07/05 07:51:04;;;;;;;10.10;9.00;;;;;;;27.36;100.00;98660.58;1632954;87;20990;-67
2021/07/05 07:53:34;;;;;;;13.15;9.13;;;;;;;27.28;100.00;98663.08;1654448;85;21008;-66
2021/07/05 07:56:01;;;;;;;15.80;8.85;;;;;;;27.33;100.00;98665.46;1649105;85;21193;-68
2021/07/05 07:58:28;;;;;;;9.33;7.53;;;;;;;27.33;100.00;98671.56;1654602;85;20977;-67
2021/07/05 08:00:54;;;;;;;10.90;8.83;;;;;;;27.08;100.00;98670.05;1632883;86;20978;-68
2021/07/05 08:03:24;;;;;;;9.80;7.00;;;;;;;27.01;100.00;98673.55;1717618;81;21086;-67
2021/07/05 08:05:51;;;;;;;10.15;7.58;;;;;;;27.05;100.00;98669.45;1693550;82;20875;-66
2021/07/05 08:08:18;;;;;;;9.50;7.58;;;;;;;26.90;100.00;98668.59;1696694;82;21102;-67
2021/07/05 08:10:47;;;;;;;10.70;6.70;;;;;;;27.03;100.00;98671.20;1687892;83;20921;-66
2021/07/05 08:13:13;;;;;;;14.78;6.78;;;;;;;27.10;100.00;98675.37;1692642;84;20924;-66
2021/07/05 08:15:40;;;;;;;9.98;6.60;;;;;;;27.08;100.00;98668.67;1671687;84;21001;-68
2021/07/05 08:18:07;;;;;;;8.17;5.90;;;;;;;27.17;100.00;98662.23;1698783;83;20949;-66
2021/07/05 08:20:33;;;;;;;8.50;7.17;;;;;;;27.17;100.00;98662.23;1703939;82;21106;-67
2021/07/05 08:23:00;;;;;;;10.45;7.85;;;;;;;27.39;100.00;98671.41;1716152;81;20858;-67
2021/07/05 08:25:26;;;;;;;8.45;6.05;;;;;;;27.34;100.00;98673.94;1694302;82;21312;-67
2021/07/05 08:27:54;;;;;;;14.77;5.90;;;;;;;27.20;100.00;98666.99;1732830;82;20886;-68
2021/07/05 08:30:21;;;;;;;;;;;;;;;26.98;100.00;98671.57;1745100;81;21040;-67
2021/07/05 08:32:48;;;;;;;8.23;7.37;;;;;;;27.07;100.00;98682.22;1734490;81;22472;-66
2021/07/05 08:35:15;;;;;;;13.25;6.83;;;;;;;27.06;100.00;98680.06;1718313;82;21025;-67
2021/07/05 08:37:42;;;;;;;10.50;6.17;;;;;;;27.32;100.00;98676.89;1685792;81;21446;-67
2021/07/05 08:40:10;;;;;;;6.92;5.83;;;;;;;27.48;100.00;98674.56;1703231;82;21025;-67
2021/07/05 08:42:37;;;;;;;10.15;6.12;;;;;;;27.34;100.00;98684.15;1713401;81;21134;-66
2021/07/05 08:45:06;;;;;;;9.38;5.70;;;;;;;27.59;100.00;98680.13;1713769;81;21134;-67
2021/07/05 08:47:41;;;;;;;12.03;6.20;;;;;;;27.87;100.00;98686.32;1702304;83;20861;-67
2021/07/05 08:50:10;;;;;;;10.03;6.00;;;;;;;27.49;100.00;98681.67;1713602;81;21014;-67
2021/07/05 08:52:42;;;;;;;23.95;6.75;;;;;;;27.42;100.00;98684.40;1700003;81;20999;-67
2021/07/05 08:55:07;;;;;;;13.43;6.40;;;;;;;27.50;100.00;98681.08;1701211;82;21328;-66
2021/07/05 08:57:38;;;;;;;8.58;6.08;;;;;;;27.66;100.00;98687.05;1694951;83;21114;-66
2021/07/05 09:00:11;;;;;;;8.95;5.85;;;;;;;28.07;100.00;98678.47;1710989;82;21395;-68
2021/07/05 09:02:38;;;;;;;10.63;6.60;;;;;;;28.40;100.00;98680.07;1694807;83;20980;-67
2021/07/05 09:05:06;;;;;;;11.75;6.17;;;;;;;28.27;100.00;98676.70;1682167;84;20950;-68
2021/07/05 09:07:33;;;;;;;9.00;5.58;;;;;;;28.29;100.00;98676.52;1686391;84;20932;-67
2021/07/05 09:10:03;;;;;;;12.27;5.80;;;;;;;27.76;100.00;98679.38;1655304;84;21199;-67
2021/07/05 09:12:32;;;;;;;7.80;5.50;;;;;;;27.72;100.00;98675.04;1703790;83;21704;-65
2021/07/05 09:15:12;;;;;;;6.58;5.72;;;;;;;27.87;100.00;98681.40;1696397;82;26390;-67
2021/07/05 09:17:41;;;;;;;14.45;5.70;;;;;;;27.92;100.00;98687.31;1699329;82;21032;-67
2021/07/05 09:20:19;;;;;;;8.23;5.42;;;;;;;27.68;100.00;98686.63;1707373;81;21102;-68
2021/07/05 09:23:12;;;;;;;7.28;5.12;;;;;;;27.74;100.00;98687.84;1707521;82;21721;-67
2021/07/05 09:25:42;;;;;;;7.92;5.65;;;;;;;27.76;100.00;98682.14;1698488;82;21011;-69
2021/07/05 09:28:09;;;;;;;9.60;5.67;;;;;;;27.43;100.00;98684.59;1714939;81;21080;-68
2021/07/05 09:30:42;;;;;;;8.33;6.20;;;;;;;27.07;100.00;98686.36;1697377;83;21465;-66
2021/07/05 09:33:25;;;;;;;7.47;6.30;;;;;;;26.88;100.00;98688.23;1652306;83;21440;-66
2021/07/05 09:35:54;;;;;;;9.35;6.45;;;;;;;26.82;100.00;98680.71;1708977;82;21118;-67
2021/07/05 09:38:31;;;;;;;8.35;6.37;;;;;;;27.16;100.00;98681.30;1709524;81;20933;-65
2021/07/05 09:40:58;;;;;;;13.95;6.62;;;;;;;27.25;100.00;98679.02;1701671;83;20910;-66
2021/07/05 09:43:28;;;;;;;11.35;5.62;;;;;;;27.25;100.00;98680.39;1694625;83;21009;-66
2021/07/05 09:45:54;;;;;;;9.43;6.60;;;;;;;27.55;100.00;98681.48;1699242;82;21499;-65
2021/07/05 09:48:24;;;;;;;12.93;5.70;;;;;;;27.96;100.00;98687.34;1707537;82;21724;-66
2021/07/05 09:51:03;;;;;;;10.95;5.40;;;;;;;27.86;100.00;98686.13;1732396;81;20934;-64
2021/07/05 09:53:34;;;;;;;23.45;6.03;;;;;;;27.44;100.00;98683.99;1690198;82;21009;-63
2021/07/05 09:56:26;;;;;;;8.30;6.17;;;;;;;27.01;100.00;98687.31;1699462;83;21329;-65
2021/07/05 09:59:02;;;;;;;12.28;6.22;;;;;;;26.81;100.00;98690.94;1697243;83;21139;-64
2021/07/05 10:01:38;;;;;;;9.85;6.08;;;;;;;26.71;100.00;98688.91;1742393;81;21118;-66
2021/07/05 10:04:09;;;;;;;7.15;5.85;;;;;;;26.69;100.00;98694.78;1741042;81;21008;-66
2021/07/05 10:06:47;;;;;;;13.90;4.65;;;;;;;26.94;100.00;98687.27;1723559;81;20881;-69
2021/07/05 10:09:33;;;;;;;5.30;3.80;;;;;;;26.86;100.00;98697.45;1723199;82;21054;-68
2021/07/05 10:12:34;;;;;;;4.53;3.70;;;;;;;26.07;100.00;98691.31;1612374;87;21099;-69
2021/07/05 10:15:10;;;;;;;;;;;;;;;25.48;100.00;98689.45;1609061;87;21417;-65
2021/07/05 10:17:42;;;;;;;13.20;4.15;;;;;;;24.54;100.00;98697.75;1612804;87;20183;-66
2021/07/05 10:20:13;;;;;;;7.92;3.70;;;;;;;23.82;100.00;98704.52;1623254;87;21073;-65
2021/07/05 10:22:45;;;;;;;8.18;4.95;;;;;;;23.39;100.00;98693.45;1608803;87;21082;-64
2021/07/05 10:25:12;;;;;;;6.95;4.47;;;;;;;23.17;100.00;98684.59;1616454;87;21014;-65
2021/07/05 10:27:39;;;;;;;8.25;4.90;;;;;;;23.02;100.00;98686.23;1610982;87;21147;-63
2021/07/05 10:30:12;;;;;;;7.92;5.22;;;;;;;22.94;100.00;98677.05;1608082;87;21618;-62
2021/07/05 10:32:39;;;;;;;11.53;6.85;;;;;;;23.04;100.00;98678.45;1614651;87;21692;-64
2021/07/05 10:35:08;;;;;;;10.10;6.33;;;;;;;23.29;100.00;98678.98;1625945;87;21010;-65
2021/07/05 10:37:49;;;;;;;11.05;7.47;;;;;;;23.54;100.00;98671.26;1685453;83;20964;-64
2021/07/05 10:40:15;;;;;;;15.15;10.25;;;;;;;23.69;100.00;98666.28;1693328;83;21210;-64
2021/07/05 10:42:45;;;;;;;16.40;9.30;;;;;;;23.79;100.00;98673.16;1690873;83;21049;-65
2021/07/05 10:45:17;;;;;;;14.23;8.38;;;;;;;23.88;100.00;98666.05;1652355;86;21609;-65
2021/07/05 10:47:53;;;;;;;13.90;7.00;;;;;;;24.04;100.00;98674.96;1654775;85;20917;-67
2021/07/05 10:50:47;;;;;;;11.73;6.60;;;;;;;24.60;100.00;98677.09;1684473;83;21655;-67
2021/07/05 10:53:35;;;;;;;11.65;6.25;;;;;;;25.63;100.00;98676.11;1678681;84;21119;-68
2021/07/05 10:56:25;;;;;;;8.33;6.08;;;;;;;26.37;100.00;98678.01;1666937;84;21563;-68
2021/07/05 10:58:52;;;;;;;8.05;5.28;;;;;;;26.86;100.00;98680.94;1712645;82;20983;-67
2021/07/05 11:01:38;;;;;;;5.47;4.87;;;;;;;27.84;100.00;98685.73;1708729;81;21362;-66
2021/07/05 11:04:33;;;;;;;8.70;5.00;;;;;;;27.84;100.00;98685.73;1701297;82;21153;-66
2021/07/05 11:07:15;;;;;;;7.85;5.08;;;;;;;27.81;100.00;98689.25;1707968;82;21316;-68
2021/07/05 11:09:57;;;;;;;7.97;5.05;;;;;;;27.34;100.00;98689.66;1683813;83;21084;-68
2021/07/05 11:12:29;;;;;;;5.30;4.40;;;;;;;27.25;100.00;98680.98;1661254;84;21442;-67
2021/07/05 11:14:57;;;;;;;11.55;5.55;;;;;;;27.18;100.00;98678.16;1662045;85;21516;-67
2021/07/05 11:17:26;;;;;;;10.80;5.85;;;;;;;26.88;100.00;98673.09;1659169;83;20966;-67
2021/07/05 11:19:57;;;;;;;10.60;5.30;;;;;;;26.72;100.00;98665.11;1656673;85;21088;-66
2021/07/05 11:22:36;;;;;;;5.50;4.97;;;;;;;26.82;100.00;98664.20;1654207;85;21001;-66